createdAt,value
2018-12-30T00:02:04.565Z,3.90
2018-12-30T00:04:35.865Z,3.90
2018-12-30T00:07:07.413Z,3.90
2018-12-30T00:09:39.543Z,3.90
2018-12-30T00:12:11.113Z,4.00
2018-12-30T00:14:43.365Z,3.90
2018-12-30T00:17:14.651Z,4.00
2018-12-30T00:19:45.898Z,4.00
2018-12-30T00:22:17.174Z,4.00
2018-12-30T00:24:48.464Z,4.00
2018-12-30T00:27:19.715Z,4.10
2018-12-30T00:29:50.953Z,4.10
2018-12-30T00:32:23.197Z,4.10
2018-12-30T00:34:54.524Z,4.10
2018-12-30T00:37:26.086Z,4.10
2018-12-30T00:39:57.369Z,4.10
2018-12-30T00:42:28.612Z,4.10
2018-12-30T00:45:00.255Z,4.10
2018-12-30T00:47:31.601Z,4.10
2018-12-30T00:50:02.875Z,4.10
2018-12-30T00:52:34.434Z,4.10
2018-12-30T00:55:05.785Z,4.10
2018-12-30T00:57:37.373Z,4.10
2018-12-30T01:00:08.761Z,4.10
2018-12-30T01:02:40.017Z,4.10
2018-12-30T01:05:11.447Z,4.20
2018-12-30T01:07:43.021Z,4.20
2018-12-30T01:10:14.412Z,4.20
2018-12-30T01:12:45.669Z,4.20
2018-12-30T01:15:16.951Z,4.20
2018-12-30T01:17:48.238Z,4.20
2018-12-30T01:20:19.453Z,4.20
2018-12-30T01:22:50.706Z,4.30
2018-12-30T01:25:22.236Z,4.30
2018-12-30T01:27:54.513Z,4.40
2018-12-30T01:30:26.000Z,4.40
2018-12-30T01:32:57.287Z,4.40
2018-12-30T01:35:28.538Z,4.50
2018-12-30T01:37:59.769Z,4.50
2018-12-30T01:40:31.317Z,4.50
2018-12-30T01:43:02.549Z,4.50
2018-12-30T01:45:33.806Z,4.50
2018-12-30T01:48:05.052Z,4.50
2018-12-30T01:50:36.688Z,4.50
2018-12-30T01:53:08.307Z,4.60
2018-12-30T01:55:39.601Z,4.50
2018-12-30T01:58:11.170Z,4.60
2018-12-30T02:00:42.434Z,4.60
2018-12-30T02:03:13.792Z,4.60
2018-12-30T02:05:45.041Z,4.60
2018-12-30T02:08:16.336Z,4.60
2018-12-30T02:10:47.548Z,4.60
2018-12-30T02:13:18.798Z,4.60
2018-12-30T02:15:50.212Z,4.60
2018-12-30T02:18:21.457Z,4.60
2018-12-30T02:20:52.697Z,4.60
2018-12-30T02:23:24.263Z,4.60
2018-12-30T02:25:56.657Z,4.60
2018-12-30T02:28:27.949Z,4.60
2018-12-30T02:31:00.944Z,4.60
2018-12-30T02:33:32.264Z,4.60
2018-12-30T02:36:03.823Z,4.60
2018-12-30T02:38:35.065Z,4.60
2018-12-30T02:41:06.414Z,4.60
2018-12-30T02:43:37.657Z,4.60
2018-12-30T02:46:09.928Z,4.60
2018-12-30T02:48:42.106Z,4.70
2018-12-30T02:51:13.470Z,4.70
2018-12-30T02:53:44.784Z,4.70
2018-12-30T02:56:16.072Z,4.70
2018-12-30T02:58:47.390Z,4.70
2018-12-30T03:01:18.679Z,4.70
2018-12-30T03:03:49.969Z,4.80
2018-12-30T03:06:21.297Z,4.80
2018-12-30T03:08:52.587Z,4.80
2018-12-30T03:11:23.814Z,4.80
2018-12-30T03:13:55.277Z,4.80
2018-12-30T03:16:27.345Z,4.80
2018-12-30T03:18:59.053Z,4.90
2018-12-30T03:21:32.856Z,4.90
2018-12-30T03:24:04.578Z,4.90
2018-12-30T03:26:37.069Z,4.90
2018-12-30T03:29:08.362Z,4.90
2018-12-30T03:31:39.654Z,5.00
2018-12-30T03:34:10.879Z,5.00
2018-12-30T03:36:42.125Z,5.00
2018-12-30T03:39:13.351Z,5.10
2018-12-30T03:41:44.609Z,5.20
2018-12-30T03:44:15.830Z,5.30
2018-12-30T03:46:47.074Z,5.40
2018-12-30T03:49:18.321Z,5.50
2018-12-30T03:51:49.609Z,5.50
2018-12-30T03:54:21.870Z,5.60
2018-12-30T03:56:53.099Z,5.60
2018-12-30T03:59:24.358Z,5.70
2018-12-30T04:01:55.609Z,5.60
2018-12-30T04:04:27.334Z,5.60
2018-12-30T04:07:00.677Z,5.60
2018-12-30T04:09:31.938Z,5.70
2018-12-30T04:12:03.270Z,5.70
2018-12-30T04:14:34.572Z,5.80
2018-12-30T04:17:05.962Z,5.80
2018-12-30T04:19:37.764Z,5.90
2018-12-30T04:22:16.661Z,5.90
2018-12-30T04:24:41.925Z,5.90
2018-12-30T04:27:15.168Z,6.00
2018-12-30T04:29:46.606Z,5.90
2018-12-30T04:32:17.857Z,6.00
2018-12-30T04:34:49.176Z,6.00
2018-12-30T04:37:20.426Z,6.00
2018-12-30T04:39:51.682Z,6.00
2018-12-30T04:42:22.917Z,6.00
2018-12-30T04:44:54.160Z,6.00
2018-12-30T04:47:25.429Z,6.00
2018-12-30T04:49:56.708Z,6.00
2018-12-30T04:52:28.256Z,6.00
2018-12-30T04:54:59.552Z,6.00
2018-12-30T04:57:30.744Z,6.00
2018-12-30T05:00:02.020Z,6.00
2018-12-30T05:02:33.256Z,6.00
2018-12-30T05:05:04.563Z,6.00
2018-12-30T05:07:35.837Z,6.10
2018-12-30T05:10:07.289Z,6.00
2018-12-30T05:12:38.978Z,6.10
2018-12-30T05:15:10.233Z,6.10
2018-12-30T05:17:41.508Z,6.10
2018-12-30T05:20:12.855Z,6.00
2018-12-30T05:22:44.104Z,6.10
2018-12-30T05:25:15.352Z,6.10
2018-12-30T05:27:47.657Z,6.10
2018-12-30T05:30:18.871Z,6.10
2018-12-30T05:32:50.298Z,6.10
2018-12-30T05:35:21.877Z,6.10
2018-12-30T05:37:53.147Z,6.00
2018-12-30T05:40:24.399Z,6.10
2018-12-30T05:42:55.603Z,6.00
2018-12-30T05:45:26.890Z,6.10
2018-12-30T05:47:58.133Z,6.10
2018-12-30T05:50:29.417Z,6.00
2018-12-30T05:53:00.786Z,6.00
2018-12-30T05:55:32.030Z,6.10
2018-12-30T05:58:03.618Z,6.10
2018-12-30T06:00:34.925Z,6.10
2018-12-30T06:03:06.374Z,6.10
2018-12-30T06:05:37.638Z,6.00
2018-12-30T06:08:08.899Z,6.00
2018-12-30T06:10:40.202Z,6.10
2018-12-30T06:13:12.466Z,6.10
2018-12-30T06:15:43.721Z,6.10
2018-12-30T06:18:14.973Z,6.00
2018-12-30T06:20:46.341Z,6.00
2018-12-30T06:23:17.609Z,6.10
2018-12-30T06:25:49.780Z,6.00
2018-12-30T06:28:21.098Z,6.00
2018-12-30T06:30:52.393Z,5.90
2018-12-30T06:33:23.694Z,5.90
2018-12-30T06:35:54.934Z,5.90
2018-12-30T06:38:26.194Z,5.80
2018-12-30T06:40:57.448Z,5.80
2018-12-30T06:43:28.698Z,5.80
2018-12-30T06:45:59.938Z,5.80
2018-12-30T06:48:31.206Z,5.80
2018-12-30T06:51:02.454Z,5.80
2018-12-30T06:53:33.778Z,5.70
2018-12-30T06:56:05.147Z,5.70
2018-12-30T06:58:36.850Z,5.70
2018-12-30T07:01:08.157Z,5.70
2018-12-30T07:03:39.395Z,5.70
2018-12-30T07:06:10.671Z,5.70
2018-12-30T07:08:42.025Z,5.70
2018-12-30T07:11:13.387Z,5.70
2018-12-30T07:13:44.688Z,5.70
2018-12-30T07:16:15.943Z,5.70
2018-12-30T07:18:48.368Z,5.80
2018-12-30T07:21:19.649Z,5.80
2018-12-30T07:23:52.124Z,5.80
2018-12-30T07:26:23.337Z,5.80
2018-12-30T07:28:54.588Z,5.80
2018-12-30T07:31:25.868Z,5.70
2018-12-30T07:33:57.170Z,5.80
2018-12-30T07:36:28.413Z,5.70
2018-12-30T07:38:59.835Z,5.70
2018-12-30T07:41:31.232Z,5.70
2018-12-30T07:44:02.475Z,5.70
2018-12-30T07:46:33.687Z,5.70
2018-12-30T07:49:05.109Z,5.70
2018-12-30T07:51:36.421Z,5.70
2018-12-30T07:54:07.882Z,5.70
2018-12-30T07:56:39.345Z,5.70
2018-12-30T07:59:10.617Z,5.70
2018-12-30T08:01:41.969Z,5.70
2018-12-30T08:04:13.675Z,5.70
2018-12-30T08:06:44.930Z,5.60
2018-12-30T08:09:16.206Z,5.60
2018-12-30T08:11:47.458Z,5.60
2018-12-30T08:14:18.725Z,5.60
2018-12-30T08:16:49.958Z,5.70
2018-12-30T08:19:22.257Z,5.60
2018-12-30T08:21:54.671Z,5.70
2018-12-30T08:24:25.997Z,5.70
2018-12-30T08:26:57.242Z,5.70
2018-12-30T08:29:28.466Z,5.70
2018-12-30T08:31:59.724Z,5.70
2018-12-30T08:34:30.953Z,5.70
2018-12-30T08:37:02.257Z,5.70
2018-12-30T08:39:33.725Z,5.80
2018-12-30T08:42:05.403Z,5.80
2018-12-30T08:44:36.653Z,5.80
2018-12-30T08:47:07.909Z,5.80
2018-12-30T08:49:39.167Z,5.80
2018-12-30T08:52:10.453Z,5.80
2018-12-30T08:54:41.802Z,5.90
2018-12-30T08:57:13.155Z,5.90
2018-12-30T08:59:44.483Z,6.00
2018-12-30T09:02:15.735Z,6.00
2018-12-30T09:04:47.012Z,6.00
2018-12-30T09:07:18.561Z,6.10
2018-12-30T09:09:52.133Z,6.10
2018-12-30T09:12:23.404Z,6.10
2018-12-30T09:14:54.649Z,6.20
2018-12-30T09:17:25.926Z,6.20
2018-12-30T09:19:57.161Z,6.20
2018-12-30T09:22:28.690Z,6.30
2018-12-30T09:25:00.162Z,6.30
2018-12-30T09:27:31.520Z,6.30
2018-12-30T09:30:02.772Z,6.30
2018-12-30T09:32:34.300Z,6.30
2018-12-30T09:35:05.713Z,6.40
2018-12-30T09:37:38.321Z,6.40
2018-12-30T09:40:09.757Z,6.40
2018-12-30T09:42:41.010Z,6.40
2018-12-30T09:45:12.286Z,6.40
2018-12-30T09:47:43.754Z,6.50
2018-12-30T09:50:15.000Z,6.50
2018-12-30T09:52:47.389Z,6.50
2018-12-30T09:55:18.891Z,6.50
2018-12-30T09:57:51.373Z,6.60
2018-12-30T10:00:23.789Z,6.60
2018-12-30T10:02:55.773Z,6.60
2018-12-30T10:05:27.045Z,6.60
2018-12-30T10:07:58.528Z,6.70
2018-12-30T10:10:29.761Z,6.70
2018-12-30T10:13:01.016Z,6.70
2018-12-30T10:15:32.266Z,6.80
2018-12-30T10:18:03.658Z,6.80
2018-12-30T10:20:34.988Z,6.90
2018-12-30T10:23:06.316Z,6.90
2018-12-30T10:25:37.575Z,6.90
2018-12-30T10:28:08.981Z,6.90
2018-12-30T10:30:40.818Z,7.00
2018-12-30T10:33:12.064Z,7.00
2018-12-30T10:35:43.344Z,7.00
2018-12-30T10:38:14.569Z,7.00
2018-12-30T10:40:45.810Z,7.00
2018-12-30T10:43:17.052Z,7.10
2018-12-30T10:45:48.329Z,7.10
2018-12-30T10:48:19.637Z,7.10
2018-12-30T10:50:51.365Z,7.10
2018-12-30T10:53:22.925Z,7.10
2018-12-30T10:55:54.385Z,7.10
2018-12-30T10:58:25.646Z,7.20
2018-12-30T11:00:56.914Z,7.20
2018-12-30T11:03:28.614Z,7.20
2018-12-30T11:06:00.030Z,7.20
2018-12-30T11:08:31.322Z,7.30
2018-12-30T11:11:02.975Z,7.30
2018-12-30T11:13:35.681Z,7.30
2018-12-30T11:16:07.344Z,7.40
2018-12-30T11:18:38.604Z,7.40
2018-12-30T11:21:09.883Z,7.40
2018-12-30T11:23:41.137Z,7.40
2018-12-30T11:26:14.057Z,7.40
2018-12-30T11:28:45.677Z,7.50
2018-12-30T11:31:16.929Z,7.50
2018-12-30T11:33:48.312Z,7.50
2018-12-30T11:36:19.578Z,7.50
2018-12-30T11:38:50.890Z,7.50
2018-12-30T11:41:22.125Z,7.60
2018-12-30T11:43:53.370Z,7.60
2018-12-30T11:46:24.627Z,7.70
2018-12-30T11:48:56.061Z,7.70
2018-12-30T11:51:27.410Z,7.80
2018-12-30T11:53:58.674Z,7.80
2018-12-30T11:56:30.051Z,7.80
2018-12-30T11:59:02.102Z,7.80
2018-12-30T12:01:33.344Z,7.80
2018-12-30T12:04:04.710Z,7.80
2018-12-30T12:06:35.986Z,7.90
2018-12-30T12:09:09.188Z,7.90
2018-12-30T12:11:41.722Z,7.90
2018-12-30T12:14:12.979Z,8.00
2018-12-30T12:16:44.226Z,8.00
2018-12-30T12:19:15.509Z,8.00
2018-12-30T12:21:46.718Z,8.00
2018-12-30T12:24:24.245Z,8.10
2018-12-30T12:26:51.100Z,8.10
2018-12-30T12:29:22.561Z,8.10
2018-12-30T12:31:54.111Z,8.10
2018-12-30T12:34:25.536Z,8.10
2018-12-30T12:36:57.214Z,8.20
2018-12-30T12:39:28.905Z,8.20
2018-12-30T12:42:00.137Z,8.20
2018-12-30T12:44:32.017Z,8.20
2018-12-30T12:47:03.301Z,8.20
2018-12-30T12:49:40.671Z,8.20
2018-12-30T12:52:31.683Z,8.20
2018-12-30T12:55:09.220Z,8.10
2018-12-30T12:58:01.769Z,8.10
2018-12-30T13:00:46.022Z,8.20
2018-12-30T13:03:30.563Z,8.20
2018-12-30T13:06:14.776Z,8.20
2018-12-30T13:09:12.540Z,8.20
2018-12-30T13:12:05.737Z,8.20
2018-12-30T13:14:49.795Z,8.20
2018-12-30T13:17:26.929Z,8.20
2018-12-30T13:20:05.903Z,8.10
2018-12-30T13:22:58.116Z,8.10
2018-12-30T13:25:42.342Z,8.10
2018-12-30T13:28:24.971Z,8.10
2018-12-30T13:31:08.794Z,8.20
2018-12-30T13:34:09.122Z,8.10
2018-12-30T13:40:12.585Z,8.10
2018-12-30T13:43:00.149Z,8.10
2018-12-30T13:45:48.096Z,8.10
2018-12-30T13:48:28.711Z,8.00
2018-12-30T13:51:02.322Z,8.00
2018-12-30T13:53:50.233Z,8.00
2018-12-30T13:56:46.012Z,8.00
2018-12-30T13:59:25.681Z,8.00
2018-12-30T14:02:02.600Z,8.00
2018-12-30T14:04:45.096Z,7.90
2018-12-30T14:07:38.217Z,7.90
2018-12-30T14:10:27.661Z,7.90
2018-12-30T14:13:08.151Z,7.80
2018-12-30T14:15:51.061Z,7.80
2018-12-30T14:18:36.697Z,7.80
2018-12-30T14:21:17.382Z,7.80
2018-12-30T14:24:06.974Z,7.70
2018-12-30T14:26:45.306Z,7.70
2018-12-30T14:29:34.855Z,7.60
2018-12-30T14:32:13.822Z,7.60
2018-12-30T14:34:46.485Z,7.60
2018-12-30T14:37:20.086Z,7.60
2018-12-30T14:39:59.216Z,7.60
2018-12-30T14:42:33.124Z,7.60
2018-12-30T14:45:18.804Z,7.50
2018-12-30T14:47:51.867Z,7.50
2018-12-30T14:50:23.233Z,7.50
2018-12-30T14:52:54.544Z,7.50
2018-12-30T14:55:25.949Z,7.40
2018-12-30T14:57:57.374Z,7.50
2018-12-30T15:00:28.863Z,7.40
2018-12-30T15:03:00.144Z,7.40
2018-12-30T15:05:31.404Z,7.40
2018-12-30T15:08:03.653Z,7.40
2018-12-30T15:10:35.611Z,7.30
2018-12-30T15:13:06.831Z,7.30
2018-12-30T15:15:39.083Z,7.30
2018-12-30T15:18:11.198Z,7.30
2018-12-30T15:20:43.700Z,7.30
2018-12-30T15:23:15.101Z,7.30
2018-12-30T15:25:46.349Z,7.20
2018-12-30T15:28:17.572Z,7.30
2018-12-30T15:30:48.841Z,7.30
2018-12-30T15:33:20.057Z,7.20
2018-12-30T15:35:51.612Z,7.20
2018-12-30T15:38:22.942Z,7.20
2018-12-30T15:40:54.425Z,7.20
2018-12-30T15:43:25.784Z,7.20
2018-12-30T15:45:57.041Z,7.10
2018-12-30T15:48:28.293Z,7.10
2018-12-30T15:51:00.004Z,7.10
2018-12-30T15:53:31.314Z,7.10
2018-12-30T15:56:02.684Z,7.10
2018-12-30T15:58:34.833Z,7.10
2018-12-30T16:01:06.399Z,7.10
2018-12-30T16:03:37.663Z,7.10
2018-12-30T16:06:08.881Z,7.10
2018-12-30T16:08:40.133Z,7.00
2018-12-30T16:11:11.363Z,7.00
2018-12-30T16:13:45.774Z,7.00
2018-12-30T16:16:17.133Z,7.00
2018-12-30T16:18:48.389Z,7.00
2018-12-30T16:21:19.666Z,7.00
2018-12-30T16:23:50.989Z,7.00
2018-12-30T16:26:22.581Z,7.00
2018-12-30T16:28:53.796Z,7.00
2018-12-30T16:31:28.128Z,7.00
2018-12-30T16:33:58.116Z,7.00
2018-12-30T16:36:29.374Z,6.90
2018-12-30T16:39:01.505Z,6.90
2018-12-30T16:41:34.722Z,6.90
2018-12-30T16:44:06.513Z,6.90
2018-12-30T16:46:37.826Z,6.80
2018-12-30T16:49:09.580Z,6.90
2018-12-30T16:51:41.441Z,6.80
2018-12-30T16:54:12.779Z,6.80
2018-12-30T16:56:44.501Z,6.80
2018-12-30T16:59:16.076Z,6.80
2018-12-30T17:01:47.516Z,6.80
2018-12-30T17:04:19.446Z,6.70
2018-12-30T17:06:50.717Z,6.70
2018-12-30T17:09:23.220Z,6.70
2018-12-30T17:11:54.753Z,6.70
2018-12-30T17:14:27.420Z,6.70
2018-12-30T17:16:59.221Z,6.70
2018-12-30T17:19:31.525Z,6.70
2018-12-30T17:22:05.682Z,6.60
2018-12-30T17:24:37.108Z,6.60
2018-12-30T17:27:09.384Z,6.60
2018-12-30T17:29:40.849Z,6.60
2018-12-30T17:32:12.310Z,6.60
2018-12-30T17:34:44.484Z,6.60
2018-12-30T17:37:15.754Z,6.60
2018-12-30T17:39:48.465Z,6.60
2018-12-30T17:42:19.729Z,6.60
2018-12-30T17:44:52.173Z,6.60
2018-12-30T17:47:24.371Z,6.60
2018-12-30T17:49:56.162Z,6.60
2018-12-30T17:52:29.888Z,6.60
2018-12-30T17:55:01.462Z,6.60
2018-12-30T17:57:32.704Z,6.60
2018-12-30T18:00:04.834Z,6.60
2018-12-30T18:02:37.142Z,6.60
2018-12-30T18:05:09.125Z,6.60
2018-12-30T18:07:40.494Z,6.60
2018-12-30T18:10:11.741Z,6.60
2018-12-30T18:12:43.561Z,6.60
2018-12-30T18:15:15.257Z,6.60
2018-12-30T18:17:46.614Z,6.60
2018-12-30T18:20:18.015Z,6.60
2018-12-30T18:22:49.260Z,6.60
2018-12-30T18:25:20.954Z,6.60
2018-12-30T18:27:52.241Z,6.60
2018-12-30T18:30:24.953Z,6.60
2018-12-30T18:32:56.244Z,6.60
2018-12-30T18:35:27.504Z,6.50
2018-12-30T18:37:58.765Z,6.60
2018-12-30T18:40:30.021Z,6.50
2018-12-30T18:43:01.280Z,6.50
2018-12-30T18:45:32.553Z,6.50
2018-12-30T18:48:03.994Z,6.50
2018-12-30T18:50:35.290Z,6.50
2018-12-30T18:53:06.899Z,6.50
2018-12-30T18:55:38.353Z,6.50
2018-12-30T18:58:09.790Z,6.50
2018-12-30T19:00:42.065Z,6.50
2018-12-30T19:03:13.311Z,6.50
2018-12-30T19:05:44.569Z,6.50
2018-12-30T19:08:15.861Z,6.50
2018-12-30T19:10:47.422Z,6.50
2018-12-30T19:13:18.629Z,6.50
2018-12-30T19:15:49.841Z,6.50
2018-12-30T19:18:21.794Z,6.50
2018-12-30T19:20:52.997Z,6.50
2018-12-30T19:23:24.505Z,6.50
2018-12-30T19:26:00.997Z,6.50
2018-12-30T19:28:28.689Z,6.50
2018-12-30T19:31:00.325Z,6.40
2018-12-30T19:33:31.618Z,6.40
2018-12-30T19:36:03.890Z,6.50
2018-12-30T19:38:35.764Z,6.40
2018-12-30T19:41:07.576Z,6.50
2018-12-30T19:43:38.861Z,6.40
2018-12-30T19:46:10.383Z,6.40
2018-12-30T19:48:43.197Z,6.40
2018-12-30T19:51:16.721Z,6.40
2018-12-30T19:53:49.681Z,6.40
2018-12-30T19:56:21.970Z,6.40
2018-12-30T19:58:53.625Z,6.40
2018-12-30T20:01:25.992Z,6.40
2018-12-30T20:04:03.452Z,6.40
2018-12-30T20:06:34.956Z,6.40
2018-12-30T20:09:09.181Z,6.40
2018-12-30T20:11:40.622Z,6.40
2018-12-30T20:14:12.453Z,6.30
2018-12-30T20:16:45.104Z,6.40
2018-12-30T20:19:17.893Z,6.30
2018-12-30T20:21:51.789Z,6.30
2018-12-30T20:24:23.253Z,6.20
2018-12-30T20:26:54.672Z,6.20
2018-12-30T20:29:26.145Z,6.20
2018-12-30T20:32:02.311Z,6.20
2018-12-30T20:34:35.360Z,6.20
2018-12-30T20:37:08.949Z,6.20
2018-12-30T20:39:41.322Z,6.20
2018-12-30T20:42:13.949Z,6.20
2018-12-30T20:44:46.804Z,6.20
2018-12-30T20:47:18.353Z,6.20
2018-12-30T20:49:50.199Z,6.20
2018-12-30T20:52:22.663Z,6.20
2018-12-30T20:54:54.236Z,6.20
2018-12-30T20:57:26.056Z,6.20
2018-12-30T20:59:57.933Z,6.10
2018-12-30T21:02:30.220Z,6.10
2018-12-30T21:05:03.895Z,6.10
2018-12-30T21:07:35.302Z,6.10
2018-12-30T21:10:07.483Z,6.10
2018-12-30T21:12:39.233Z,6.10
2018-12-30T21:15:10.733Z,6.10
2018-12-30T21:17:42.453Z,6.10
2018-12-30T21:20:14.225Z,6.10
2018-12-30T21:22:48.137Z,6.00
2018-12-30T21:25:19.933Z,6.00
2018-12-30T21:27:51.625Z,6.00
2018-12-30T21:30:23.144Z,5.90
2018-12-30T21:32:54.576Z,5.90
2018-12-30T21:35:25.994Z,5.90
2018-12-30T21:37:57.405Z,5.90
2018-12-30T21:40:30.455Z,5.90
2018-12-30T21:43:02.568Z,5.90
2018-12-30T21:45:34.327Z,5.90
2018-12-30T21:48:05.902Z,5.80
2018-12-30T21:50:37.583Z,5.80
2018-12-30T21:53:09.156Z,5.80
2018-12-30T21:55:41.785Z,5.90
2018-12-30T21:58:13.127Z,5.90
2018-12-30T22:00:44.416Z,5.90
2018-12-30T22:03:17.750Z,5.90
2018-12-30T22:05:49.270Z,5.90
2018-12-30T22:08:21.182Z,5.90
2018-12-30T22:10:53.070Z,5.90
2018-12-30T22:13:24.962Z,5.90
2018-12-30T22:15:56.842Z,5.90
2018-12-30T22:18:28.136Z,5.90
2018-12-30T22:21:00.823Z,5.90
2018-12-30T22:23:32.097Z,5.90
2018-12-30T22:26:03.389Z,5.80
2018-12-30T22:28:36.841Z,5.90
2018-12-30T22:31:08.909Z,5.90
2018-12-30T22:33:41.462Z,5.90
2018-12-30T22:36:13.772Z,5.90
2018-12-30T22:38:45.596Z,5.90
2018-12-30T22:41:17.476Z,5.90
2018-12-30T22:43:49.366Z,5.90
2018-12-30T22:46:20.809Z,5.90
2018-12-30T22:48:53.116Z,5.80
2018-12-30T22:51:24.412Z,5.80
2018-12-30T22:53:55.658Z,5.80
2018-12-30T22:56:26.942Z,5.90
2018-12-30T22:58:58.331Z,5.80
2018-12-30T23:01:34.658Z,5.80
2018-12-30T23:04:06.265Z,5.80
2018-12-30T23:06:37.533Z,5.80
2018-12-30T23:09:08.795Z,5.80
2018-12-30T23:11:40.065Z,5.80
2018-12-30T23:14:11.361Z,5.80
2018-12-30T23:16:42.785Z,5.80
2018-12-30T23:19:14.089Z,5.80
2018-12-30T23:21:45.627Z,5.80
2018-12-30T23:24:16.973Z,5.80
2018-12-30T23:26:48.208Z,5.80
2018-12-30T23:29:19.460Z,5.80
2018-12-30T23:31:50.721Z,5.80
2018-12-30T23:34:23.009Z,5.80
2018-12-30T23:36:54.277Z,5.80
2018-12-30T23:39:25.550Z,5.80
2018-12-30T23:41:56.790Z,5.80
2018-12-30T23:44:28.217Z,5.80
2018-12-30T23:47:00.689Z,5.80
2018-12-30T23:49:31.977Z,5.80
2018-12-30T23:52:04.351Z,5.80
2018-12-30T23:54:35.634Z,5.80
2018-12-30T23:57:07.002Z,5.80
2018-12-30T23:59:38.324Z,5.80
